Time;durP1;ratioP1;P1;durP2;ratioP2;P2;SDS_P1;SDS_P2;PMS_P1;PMS_P2;Temp;Humidity;BMP_temperature;BMP_pressure;BME280_temperature;BME280_humidity;BME280_pressure;Samples;Min_cycle;Max_cycle;Signal;HPM_P1;HPM_P2
2021/09/11 00:00:58;;;;;;;10.88;5.60;;;27.90;94.70;;;;;;5044394;28;20037;-53
2021/09/11 00:03:25;;;;;;;27.65;5.90;;;27.90;94.10;;;;;;5043826;28;20020;-48
2021/09/11 00:05:51;;;;;;;14.45;5.43;;;27.80;94.00;;;;;;5043792;28;20037;-52
2021/09/11 00:08:18;;;;;;;38.70;7.18;;;27.80;94.20;;;;;;5043650;28;20041;-48
2021/09/11 00:10:45;;;;;;;134.52;15.13;;;27.80;93.80;;;;;;5044240;28;20057;-55
2021/09/11 00:13:11;;;;;;;111.15;12.85;;;27.80;93.60;;;;;;5044256;28;20017;-47
2021/09/11 00:15:38;;;;;;;79.43;10.73;;;27.80;93.60;;;;;;5044192;28;20063;-54
2021/09/11 00:18:06;;;;;;;53.53;8.45;;;27.80;93.40;;;;;;5043684;28;20266;-50
2021/09/11 00:20:33;;;;;;;59.13;8.65;;;27.70;93.30;;;;;;5044094;28;20056;-48
2021/09/11 00:23:01;;;;;;;65.90;8.70;;;27.70;93.20;;;;;;5043907;28;20254;-50
2021/09/11 00:25:29;;;;;;;35.63;7.50;;;27.70;93.20;;;;;;5043370;28;20010;-49
2021/09/11 00:27:56;;;;;;;55.45;9.85;;;27.70;93.00;;;;;;5043730;28;20014;-56
2021/09/11 00:30:22;;;;;;;118.13;15.18;;;27.60;92.90;;;;;;5044990;28;20017;-55
2021/09/11 00:32:49;;;;;;;99.55;11.07;;;27.50;92.70;;;;;;5047414;28;20049;-55
2021/09/11 00:35:17;;;;;;;88.90;13.00;;;27.40;92.80;;;;;;5046856;28;20036;-52
2021/09/11 00:37:44;;;;;;;79.15;7.55;;;27.30;92.30;;;;;;5047209;28;20107;-49
2021/09/11 00:40:12;;;;;;;82.75;8.43;;;27.10;92.10;;;;;;5046451;28;20024;-55
2021/09/11 00:42:45;;;;;;;99.10;9.10;;;27.10;92.30;;;;;;5046002;28;20249;-50
2021/09/11 00:45:12;;;;;;;97.13;9.70;;;27.10;92.50;;;;;;5046895;28;20218;-48
2021/09/11 00:47:39;;;;;;;117.70;9.02;;;27.10;92.10;;;;;;5047147;28;20029;-48
2021/09/11 00:50:07;;;;;;;112.18;9.25;;;27.10;91.60;;;;;;5046709;28;20025;-50
2021/09/11 00:52:33;;;;;;;99.07;8.70;;;27.00;91.60;;;;;;5046618;28;20026;-49
2021/09/11 00:55:00;;;;;;;92.28;7.68;;;27.00;91.50;;;;;;5046625;28;20016;-49
2021/09/11 00:57:28;;;;;;;59.83;7.20;;;27.00;91.40;;;;;;5047077;28;20084;-50
2021/09/11 00:59:55;;;;;;;88.32;8.32;;;26.90;91.40;;;;;;5046723;28;20309;-49
2021/09/11 01:02:21;;;;;;;122.45;9.52;;;26.90;91.70;;;;;;5046762;28;20033;-49
2021/09/11 01:04:48;;;;;;;116.28;10.73;;;26.90;91.80;;;;;;5046222;28;20067;-49
2021/09/11 01:07:15;;;;;;;106.80;8.15;;;26.80;92.30;;;;;;5046438;28;20045;-48
2021/09/11 01:09:42;;;;;;;114.55;9.93;;;26.80;92.10;;;;;;5046149;28;20021;-53
2021/09/11 01:12:10;;;;;;;134.98;11.25;;;26.80;92.20;;;;;;5046851;28;20313;-47
2021/09/11 01:14:39;;;;;;;132.35;11.88;;;26.80;92.20;;;;;;5046235;28;20041;-47
2021/09/11 01:17:06;;;;;;;163.10;13.15;;;26.80;92.10;;;;;;5046413;28;20029;-47
2021/09/11 01:19:32;;;;;;;159.52;12.18;;;26.80;92.20;;;;;;5046177;28;20036;-48
2021/09/11 01:21:59;;;;;;;110.60;11.00;;;26.80;92.10;;;;;;5046544;28;20025;-49
2021/09/11 01:24:26;;;;;;;157.93;11.45;;;26.80;92.10;;;;;;5045953;28;20025;-48
2021/09/11 01:26:53;;;;;;;161.18;12.23;;;26.80;92.00;;;;;;5046393;28;20049;-57
2021/09/11 01:29:19;;;;;;;167.45;12.52;;;26.80;91.90;;;;;;5045648;28;20317;-49
2021/09/11 01:31:46;;;;;;;118.95;10.02;;;26.80;91.80;;;;;;5045943;28;20076;-51
2021/09/11 01:34:13;;;;;;;180.95;13.75;;;26.80;91.60;;;;;;5045616;28;20025;-49
2021/09/11 01:36:39;;;;;;;116.53;10.40;;;26.80;91.40;;;;;;5046146;28;20032;-50
2021/09/11 01:39:06;;;;;;;223.50;16.23;;;26.80;91.40;;;;;;5045899;28;20014;-48
2021/09/11 01:41:33;;;;;;;171.88;12.95;;;26.70;91.40;;;;;;5045508;28;20025;-49
2021/09/11 01:44:00;;;;;;;142.55;10.13;;;26.70;91.10;;;;;;5045764;28;20321;-48
2021/09/11 01:46:27;;;;;;;141.88;10.20;;;26.70;91.20;;;;;;5045968;28;20030;-47
2021/09/11 01:48:53;;;;;;;79.05;6.43;;;26.70;91.10;;;;;;5045315;28;20071;-52
2021/09/11 01:51:20;;;;;;;125.55;8.75;;;26.60;91.10;;;;;;5045501;28;20096;-47
2021/09/11 01:53:47;;;;;;;58.70;5.47;;;26.60;90.90;;;;;;5045567;28;20013;-51
2021/09/11 01:56:13;;;;;;;73.88;4.95;;;26.60;90.80;;;;;;5045566;28;20025;-47
2021/09/11 01:58:40;;;;;;;56.85;5.13;;;26.60;90.90;;;;;;5045557;28;20040;-48
2021/09/11 02:01:07;;;;;;;75.10;5.97;;;26.50;91.00;;;;;;5045456;28;20029;-49
2021/09/11 02:03:34;;;;;;;74.78;7.18;;;26.50;91.20;;;;;;5044921;28;20313;-51
2021/09/11 02:06:01;;;;;;;78.13;4.78;;;26.50;91.30;;;;;;5045307;28;20191;-48
2021/09/11 02:08:28;;;;;;;56.85;5.80;;;26.40;91.50;;;;;;5044928;28;20068;-51
2021/09/11 02:10:56;;;;;;;60.83;4.97;;;26.50;91.80;;;;;;5043878;28;20037;-48
2021/09/11 02:13:23;;;;;;;87.72;7.13;;;26.40;91.80;;;;;;5045090;28;20028;-48
2021/09/11 02:15:50;;;;;;;76.25;6.97;;;26.30;92.10;;;;;;5043934;28;20017;-48
2021/09/11 02:18:16;;;;;;;99.45;8.80;;;26.40;92.10;;;;;;5044650;28;20055;-47
2021/09/11 02:20:43;;;;;;;105.38;9.70;;;26.30;92.20;;;;;;5045091;28;20079;-47
2021/09/11 02:23:09;;;;;;;107.65;10.32;;;26.30;92.30;;;;;;5045107;28;20021;-47
2021/09/11 02:25:38;;;;;;;94.57;8.88;;;26.30;92.20;;;;;;5043344;28;20005;-49
2021/09/11 02:28:05;;;;;;;62.72;7.05;;;26.30;92.20;;;;;;5040352;28;20026;-46
2021/09/11 02:30:31;;;;;;;84.22;8.30;;;26.30;92.40;;;;;;5044731;28;20187;-47
2021/09/11 02:32:58;;;;;;;98.68;9.07;;;26.30;92.70;;;;;;5039316;28;20085;-48
2021/09/11 02:35:24;;;;;;;62.03;7.47;;;26.30;92.40;;;;;;5027503;28;20064;-48
2021/09/11 02:37:52;;;;;;;124.97;10.90;;;26.30;92.30;;;;;;5024968;28;20017;-47
2021/09/11 02:40:18;;;;;;;100.85;10.02;;;26.30;92.40;;;;;;5024796;28;20075;-46
2021/09/11 02:42:45;;;;;;;67.50;6.05;;;26.30;92.70;;;;;;5025301;28;20060;-50
2021/09/11 02:45:11;;;;;;;43.45;4.68;;;26.30;92.80;;;;;;5027349;28;20025;-48
2021/09/11 02:47:38;;;;;;;40.20;4.40;;;26.30;92.70;;;;;;5044484;28;20197;-48
2021/09/11 02:50:05;;;;;;;47.40;5.20;;;26.30;92.70;;;;;;5044342;28;20025;-46
2021/09/11 02:52:32;;;;;;;58.78;6.45;;;26.30;92.80;;;;;;5035043;28;20034;-48
2021/09/11 02:54:58;;;;;;;92.45;7.45;;;26.30;92.90;;;;;;5029971;28;20089;-46
2021/09/11 02:57:25;;;;;;;73.13;7.22;;;26.20;92.90;;;;;;5040248;28;20056;-50
2021/09/11 02:59:51;;;;;;;73.40;6.88;;;26.20;93.10;;;;;;5035374;28;20021;-51
2021/09/11 03:02:18;;;;;;;41.47;4.53;;;26.30;93.10;;;;;;5044619;28;20100;-45
2021/09/11 03:04:44;;;;;;;33.33;3.38;;;26.30;93.00;;;;;;5044044;28;20025;-53
2021/09/11 03:07:11;;;;;;;14.00;1.90;;;26.20;92.80;;;;;;5044502;28;20041;-48
2021/09/11 03:09:38;;;;;;;10.13;1.38;;;26.30;92.80;;;;;;5044191;28;20064;-48
2021/09/11 03:12:05;;;;;;;17.00;1.90;;;26.20;92.80;;;;;;5044680;28;20047;-47
2021/09/11 03:14:31;;;;;;;49.40;4.72;;;26.20;93.10;;;;;;5043989;28;20010;-47
2021/09/11 03:16:58;;;;;;;42.90;3.85;;;26.20;93.00;;;;;;5044437;28;20214;-53
2021/09/11 03:19:25;;;;;;;28.65;3.47;;;26.20;93.00;;;;;;5043798;28;20305;-47
2021/09/11 03:21:51;;;;;;;7.78;1.85;;;26.10;93.00;;;;;;5044006;28;20377;-55
2021/09/11 03:24:18;;;;;;;8.73;1.10;;;26.10;93.10;;;;;;5044039;28;20120;-46
2021/09/11 03:26:44;;;;;;;5.70;1.27;;;26.20;93.10;;;;;;5044162;28;20037;-49
2021/09/11 03:29:11;;;;;;;3.00;0.68;;;26.10;93.30;;;;;;5043890;28;20029;-49
2021/09/11 03:31:38;;;;;;;5.47;0.80;;;26.10;93.30;;;;;;5043991;28;20033;-46
2021/09/11 03:34:04;;;;;;;3.55;0.88;;;26.10;93.30;;;;;;5041350;28;20017;-47
2021/09/11 03:36:31;;;;;;;5.60;0.98;;;26.10;93.30;;;;;;5034723;28;20049;-49
2021/09/11 03:38:57;;;;;;;5.55;0.95;;;26.10;93.30;;;;;;5022874;28;20033;-46
2021/09/11 03:41:24;;;;;;;8.38;1.52;;;26.10;93.30;;;;;;5031910;28;20229;-46
2021/09/11 03:43:51;;;;;;;3.95;0.88;;;26.10;93.40;;;;;;5033987;28;20318;-46
2021/09/11 03:46:18;;;;;;;4.43;1.00;;;26.10;93.40;;;;;;5038196;28;20037;-47
2021/09/11 03:48:44;;;;;;;3.33;0.63;;;26.10;93.30;;;;;;5043271;28;20198;-54
2021/09/11 03:51:11;;;;;;;3.67;0.68;;;26.10;93.40;;;;;;5043990;28;20343;-53
2021/09/11 03:53:37;;;;;;;4.20;0.77;;;26.10;93.30;;;;;;5043686;28;20049;-53
2021/09/11 03:56:04;;;;;;;4.00;0.63;;;26.10;93.20;;;;;;5043699;28;20056;-53
2021/09/11 03:58:32;;;;;;;5.75;0.90;;;26.20;93.30;;;;;;5043742;28;20249;-53
2021/09/11 04:01:00;;;;;;;3.08;0.90;;;26.10;93.20;;;;;;5043837;28;20298;-53
2021/09/11 04:03:27;;;;;;;7.60;1.60;;;26.10;93.20;;;;;;5043369;28;20310;-59
2021/09/11 04:05:54;;;;;;;7.40;2.22;;;26.10;93.40;;;;;;5047275;28;20041;-53
2021/09/11 04:08:21;;;;;;;8.93;1.77;;;26.10;93.50;;;;;;5046267;28;20053;-53
2021/09/11 04:10:47;;;;;;;5.13;1.77;;;26.10;93.40;;;;;;5046727;28;20029;-52
2021/09/11 04:13:14;;;;;;;8.13;1.90;;;26.10;93.60;;;;;;5047659;28;20035;-51
2021/09/11 04:15:40;;;;;;;5.15;1.58;;;26.10;93.60;;;;;;5047655;28;20022;-56
2021/09/11 04:18:07;;;;;;;5.93;1.70;;;26.20;93.70;;;;;;5047464;28;20017;-55
2021/09/11 04:20:35;;;;;;;7.32;1.40;;;26.10;93.60;;;;;;5047575;28;20048;-53
2021/09/11 04:23:02;;;;;;;6.60;1.48;;;26.10;93.50;;;;;;5047449;28;20029;-56
2021/09/11 04:25:28;;;;;;;3.38;1.27;;;26.10;93.50;;;;;;5047293;28;20313;-54
2021/09/11 04:27:55;;;;;;;5.32;1.30;;;26.10;93.50;;;;;;5047475;28;20025;-55
2021/09/11 04:30:21;;;;;;;5.05;1.00;;;26.10;93.50;;;;;;5038500;28;20032;-52
2021/09/11 04:32:48;;;;;;;7.35;1.20;;;26.10;93.40;;;;;;5036672;28;20096;-55
2021/09/11 04:35:15;;;;;;;2.70;1.10;;;26.10;93.30;;;;;;5038115;28;20025;-56
2021/09/11 04:37:41;;;;;;;3.30;0.98;;;26.10;93.30;;;;;;5036453;28;20230;-56
2021/09/11 04:40:08;;;;;;;4.40;1.30;;;26.10;93.30;;;;;;5027353;28;20348;-53
2021/09/11 04:42:35;;;;;;;5.78;1.65;;;26.10;93.30;;;;;;5027691;28;20037;-55
2021/09/11 04:45:02;;;;;;;3.08;1.50;;;26.10;93.30;;;;;;5030265;28;20025;-55
2021/09/11 04:47:28;;;;;;;4.05;1.98;;;26.10;93.30;;;;;;5047474;28;20088;-52
2021/09/11 04:49:55;;;;;;;4.30;1.85;;;26.10;93.40;;;;;;5046820;28;20025;-53
2021/09/11 04:52:21;;;;;;;8.10;1.83;;;26.00;93.30;;;;;;5047298;28;20052;-53
2021/09/11 04:54:48;;;;;;;4.43;1.55;;;26.00;93.40;;;;;;5046860;28;20021;-53
2021/09/11 04:57:15;;;;;;;3.78;1.58;;;26.00;93.40;;;;;;5047014;28;20052;-52
2021/09/11 04:59:41;;;;;;;4.57;1.35;;;26.00;93.40;;;;;;5046766;28;20195;-53
2021/09/11 05:02:08;;;;;;;3.53;1.20;;;26.00;93.40;;;;;;5047062;28;20021;-56
2021/09/11 05:04:34;;;;;;;2.60;1.10;;;26.00;93.30;;;;;;5046750;28;20248;-52
2021/09/11 05:07:01;;;;;;;3.53;1.02;;;26.00;93.30;;;;;;5046298;28;20084;-56
2021/09/11 05:09:28;;;;;;;5.63;1.38;;;25.90;93.30;;;;;;5046670;28;20026;-53
2021/09/11 05:11:54;;;;;;;2.95;1.02;;;26.00;93.30;;;;;;5046576;28;20033;-52
2021/09/11 05:14:21;;;;;;;3.15;1.13;;;26.00;93.20;;;;;;5046470;28;20022;-54
2021/09/11 05:16:47;;;;;;;5.78;1.33;;;26.00;93.20;;;;;;5045786;28;20187;-53
2021/09/11 05:19:14;;;;;;;4.22;1.30;;;25.90;93.20;;;;;;5046301;28;20022;-54
2021/09/11 05:21:40;;;;;;;4.80;1.30;;;25.90;93.10;;;;;;5046580;28;20049;-53
2021/09/11 05:24:07;;;;;;;3.60;1.10;;;25.80;93.10;;;;;;5046233;28;20032;-53
2021/09/11 05:26:33;;;;;;;5.47;1.38;;;25.80;93.10;;;;;;5046394;28;20025;-53
2021/09/11 05:29:00;;;;;;;2.97;1.02;;;25.80;93.20;;;;;;5038574;28;20029;-54
2021/09/11 05:31:27;;;;;;;2.38;1.00;;;25.80;93.30;;;;;;5035119;28;20022;-54
2021/09/11 05:33:54;;;;;;;6.82;1.25;;;25.80;93.30;;;;;;5035499;28;20112;-54
2021/09/11 05:36:20;;;;;;;2.72;0.82;;;25.80;93.40;;;;;;5036863;28;20044;-54
2021/09/11 05:38:47;;;;;;;4.45;0.77;;;25.80;93.30;;;;;;5037659;28;20280;-54
2021/09/11 05:41:13;;;;;;;3.70;1.02;;;25.80;93.40;;;;;;5027052;28;20225;-53
2021/09/11 05:43:40;;;;;;;4.70;1.05;;;25.80;93.40;;;;;;5026200;28;20285;-54
2021/09/11 05:46:06;;;;;;;3.17;1.30;;;25.80;93.50;;;;;;5026164;28;20029;-59
2021/09/11 05:48:34;;;;;;;5.93;1.15;;;25.80;93.40;;;;;;5025952;28;20494;-55
2021/09/11 05:51:02;;;;;;;5.57;1.00;;;25.80;93.40;;;;;;5025785;28;20072;-53
2021/09/11 05:53:28;;;;;;;6.40;1.35;;;25.80;93.20;;;;;;5026058;28;20368;-56
2021/09/11 05:55:55;;;;;;;3.15;1.10;;;25.80;93.20;;;;;;5025888;28;20057;-53
2021/09/11 05:58:23;;;;;;;4.85;1.15;;;25.80;93.20;;;;;;5026098;28;20026;-54
2021/09/11 06:00:51;;;;;;;3.92;1.10;;;25.80;93.20;;;;;;5025789;28;20183;-54
2021/09/11 06:03:17;;;;;;;3.28;1.20;;;25.80;93.10;;;;;;5025674;28;20318;-51
2021/09/11 06:05:44;;;;;;;4.13;1.30;;;25.80;93.10;;;;;;5025658;28;20040;-54
2021/09/11 06:08:10;;;;;;;4.97;1.20;;;25.80;93.10;;;;;;5025640;28;20211;-54
2021/09/11 06:10:37;;;;;;;2.65;0.88;;;25.80;93.10;;;;;;5025559;28;20017;-55
2021/09/11 06:13:03;;;;;;;5.35;1.20;;;25.80;93.10;;;;;;5025346;28;20030;-53
2021/09/11 06:15:30;;;;;;;3.38;0.85;;;25.80;93.10;;;;;;5025517;28;20018;-53
2021/09/11 06:17:57;;;;;;;3.33;1.20;;;25.80;93.00;;;;;;5025733;28;20089;-54
2021/09/11 06:20:23;;;;;;;8.00;0.93;;;25.80;93.00;;;;;;5025190;28;20017;-54
2021/09/11 06:22:50;;;;;;;2.83;1.10;;;25.80;93.00;;;;;;5025538;28;20083;-52
2021/09/11 06:25:16;;;;;;;2.85;1.20;;;25.80;92.90;;;;;;5025391;28;20045;-54
2021/09/11 06:27:43;;;;;;;4.30;0.80;;;25.80;92.90;;;;;;5025347;28;20289;-53
2021/09/11 06:30:11;;;;;;;3.03;0.90;;;25.70;92.80;;;;;;5025432;28;20298;-52
2021/09/11 06:32:38;;;;;;;4.78;0.90;;;25.70;92.70;;;;;;5025630;28;20102;-55
2021/09/11 06:35:06;;;;;;;2.30;0.93;;;25.70;92.60;;;;;;5025079;28;20064;-57
2021/09/11 06:37:33;;;;;;;2.75;0.70;;;25.70;92.60;;;;;;5025054;28;20037;-52
2021/09/11 06:40:00;;;;;;;2.53;0.80;;;25.60;92.50;;;;;;5025157;28;20018;-53
2021/09/11 06:42:27;;;;;;;4.90;0.80;;;25.60;92.50;;;;;;5025359;28;20193;-53
2021/09/11 06:44:53;;;;;;;3.42;1.02;;;25.60;92.60;;;;;;5025073;28;20030;-54
2021/09/11 06:47:20;;;;;;;2.42;0.73;;;25.60;92.70;;;;;;5025394;28;20029;-55
2021/09/11 06:49:46;;;;;;;4.70;1.20;;;25.60;92.70;;;;;;5024843;28;20194;-53
2021/09/11 06:52:13;;;;;;;2.72;0.85;;;25.60;92.60;;;;;;5025268;28;20191;-51
2021/09/11 06:54:40;;;;;;;4.35;0.77;;;25.60;92.60;;;;;;5024884;28;20020;-53
2021/09/11 06:57:06;;;;;;;2.75;0.82;;;25.60;92.60;;;;;;5024991;28;20234;-56
2021/09/11 06:59:33;;;;;;;2.75;0.95;;;25.60;92.60;;;;;;5024764;28;20116;-55
2021/09/11 07:01:59;;;;;;;4.05;1.00;;;25.60;92.50;;;;;;5025011;28;20033;-57
2021/09/11 07:04:26;;;;;;;2.28;0.90;;;25.60;92.60;;;;;;5024478;28;20053;-53
2021/09/11 07:06:53;;;;;;;4.32;0.90;;;25.60;92.60;;;;;;5024668;28;20026;-53
2021/09/11 07:09:19;;;;;;;6.80;1.00;;;25.60;92.60;;;;;;5024827;28;20026;-53
2021/09/11 07:11:46;;;;;;;5.93;0.98;;;25.60;92.70;;;;;;5024612;28;20129;-53
2021/09/11 07:14:15;;;;;;;5.35;0.93;;;25.60;92.70;;;;;;5024519;28;20018;-55
2021/09/11 07:16:43;;;;;;;5.20;1.08;;;25.60;92.60;;;;;;5024764;28;20029;-55
2021/09/11 07:19:10;;;;;;;7.28;1.23;;;25.60;92.70;;;;;;5024275;28;20021;-54
2021/09/11 07:21:38;;;;;;;5.07;1.08;;;25.60;92.70;;;;;;5024803;28;20045;-54
2021/09/11 07:24:05;;;;;;;4.47;1.13;;;25.60;92.70;;;;;;5024388;28;20029;-53
2021/09/11 07:26:31;;;;;;;4.70;0.90;;;25.60;92.70;;;;;;5024399;28;20302;-57
2021/09/11 07:28:58;;;;;;;4.25;0.90;;;25.60;92.70;;;;;;5024402;28;20049;-55
2021/09/11 07:31:25;;;;;;;6.68;1.08;;;25.60;92.70;;;;;;5024346;28;20206;-54
2021/09/11 07:33:51;;;;;;;4.82;1.20;;;25.60;92.70;;;;;;5024125;28;20014;-50
2021/09/11 07:36:18;;;;;;;3.20;0.80;;;25.60;92.60;;;;;;5024055;28;20100;-51
2021/09/11 07:38:45;;;;;;;3.55;1.40;;;25.60;92.70;;;;;;5023741;28;20014;-51
2021/09/11 07:41:11;;;;;;;2.80;0.82;;;25.60;92.60;;;;;;5024213;28;20030;-49
2021/09/11 07:43:38;;;;;;;3.08;1.00;;;25.60;92.60;;;;;;5024173;28;20030;-52
2021/09/11 07:46:04;;;;;;;4.18;1.23;;;25.60;92.60;;;;;;5024221;28;20030;-53
2021/09/11 07:48:31;;;;;;;4.22;1.00;;;25.60;92.60;;;;;;5024100;28;20018;-52
2021/09/11 07:50:58;;;;;;;3.42;1.15;;;25.60;92.50;;;;;;5023919;28;20306;-52
2021/09/11 07:53:24;;;;;;;3.50;0.90;;;25.60;92.60;;;;;;5024075;28;20099;-53
2021/09/11 07:55:51;;;;;;;1.90;0.90;;;25.60;92.60;;;;;;5024026;28;20026;-55
2021/09/11 07:58:17;;;;;;;2.53;0.75;;;25.50;92.60;;;;;;5023861;28;20022;-53
2021/09/11 08:00:44;;;;;;;4.47;1.00;;;25.50;92.50;;;;;;5023937;28;20030;-54
2021/09/11 08:03:11;;;;;;;2.08;0.80;;;25.50;92.50;;;;;;5023913;28;20028;-61
2021/09/11 08:05:37;;;;;;;2.80;0.85;;;25.50;92.40;;;;;;5023668;28;20029;-57
2021/09/11 08:08:04;;;;;;;1.63;0.90;;;25.60;92.30;;;;;;5023737;28;20121;-54
2021/09/11 08:10:32;;;;;;;2.55;0.75;;;25.60;92.30;;;;;;5023854;28;20021;-54
2021/09/11 08:12:58;;;;;;;2.95;0.70;;;25.60;92.30;;;;;;5023641;28;20026;-55
2021/09/11 08:15:25;;;;;;;4.10;0.70;;;25.60;92.30;;;;;;5023763;28;20250;-53
2021/09/11 08:17:52;;;;;;;4.53;0.90;;;25.60;92.30;;;;;;5023853;28;20026;-53
2021/09/11 08:20:18;;;;;;;4.57;0.80;;;25.60;92.20;;;;;;5023667;28;20213;-53
2021/09/11 08:22:45;;;;;;;2.80;0.77;;;25.60;92.20;;;;;;5023717;28;20397;-53
2021/09/11 08:25:12;;;;;;;3.53;0.70;;;25.60;92.10;;;;;;5023825;28;20310;-59
2021/09/11 08:27:39;;;;;;;2.08;0.85;;;25.60;92.10;;;;;;5024123;28;20030;-53
2021/09/11 08:30:06;;;;;;;3.40;0.90;;;25.60;92.00;;;;;;5023630;28;20037;-55
2021/09/11 08:32:36;;;;;;;3.92;0.70;;;25.60;91.80;;;;;;5024132;28;20259;-53
2021/09/11 08:35:03;;;;;;;5.63;0.65;;;25.60;91.80;;;;;;5023594;28;20025;-53
2021/09/11 08:37:30;;;;;;;3.70;0.73;;;25.60;91.80;;;;;;5024047;28;20029;-57
2021/09/11 08:39:57;;;;;;;3.38;0.68;;;25.50;91.60;;;;;;5024056;28;20302;-53
2021/09/11 08:42:24;;;;;;;4.43;0.52;;;25.50;91.60;;;;;;5024194;28;20360;-53
2021/09/11 08:44:50;;;;;;;2.75;0.60;;;25.50;91.60;;;;;;5023713;28;20021;-58
2021/09/11 08:47:17;;;;;;;2.25;0.60;;;25.50;91.60;;;;;;5024333;28;20021;-54
2021/09/11 08:49:44;;;;;;;2.63;0.90;;;25.50;91.50;;;;;;5023525;28;20030;-51
2021/09/11 08:52:12;;;;;;;6.45;0.80;;;25.50;91.50;;;;;;5026920;28;20022;-58
2021/09/11 08:54:39;;;;;;;2.75;0.60;;;25.50;91.30;;;;;;5027295;28;20026;-49
2021/09/11 08:57:26;;;;;;;5.13;1.00;;;25.50;91.40;;;;;;5027641;28;20022;-53
2021/09/11 08:59:54;;;;;;;3.55;0.80;;;25.50;91.20;;;;;;5027076;28;20021;-56
2021/09/11 09:02:23;;;;;;;3.15;0.73;;;25.50;91.30;;;;;;5027362;28;20036;-53
2021/09/11 09:04:51;;;;;;;2.83;0.90;;;25.50;91.20;;;;;;5026953;28;20026;-53
2021/09/11 09:07:40;;;;;;;2.58;0.95;;;25.50;91.20;;;;;;5026528;28;20107;-53
2021/09/11 09:10:10;;;;;;;2.85;0.77;;;25.40;91.10;;;;;;5027129;28;20028;-58
2021/09/11 09:12:42;;;;;;;3.85;0.80;;;25.40;91.20;;;;;;5027406;28;20361;-54
2021/09/11 09:15:13;;;;;;;3.85;1.08;;;25.30;91.10;;;;;;5026670;28;20028;-57
2021/09/11 09:17:45;;;;;;;3.42;1.10;;;25.40;91.10;;;;;;5027299;28;20018;-49
2021/09/11 09:20:22;;;;;;;4.55;1.13;;;25.30;91.30;;;;;;5026531;28;20021;-52
2021/09/11 09:23:19;;;;;;;4.68;1.25;;;25.30;91.20;;;;;;5026722;28;20053;-53
2021/09/11 09:25:46;;;;;;;1.88;1.10;;;25.30;91.30;;;;;;5026660;28;20037;-51
2021/09/11 09:28:15;;;;;;;3.78;1.00;;;25.30;91.40;;;;;;5026990;28;20147;-56
2021/09/11 09:30:47;;;;;;;5.15;1.20;;;25.30;91.40;;;;;;5026383;28;20041;-55
2021/09/11 09:33:21;;;;;;;9.25;1.52;;;25.30;91.40;;;;;;5026483;28;20025;-48
2021/09/11 09:35:51;;;;;;;4.95;1.30;;;25.40;91.50;;;;;;5026447;28;20237;-53
2021/09/11 09:38:19;;;;;;;6.38;1.30;;;25.40;91.50;;;;;;5026384;28;20303;-52
2021/09/11 09:40:49;;;;;;;4.63;1.27;;;25.40;91.50;;;;;;5026445;28;20298;-53
2021/09/11 09:43:31;;;;;;;3.65;1.58;;;25.40;91.50;;;;;;5026122;28;20035;-50
2021/09/11 09:46:03;;;;;;;5.93;1.70;;;25.40;91.60;;;;;;5026525;28;20076;-50
2021/09/11 09:48:33;;;;;;;7.63;1.63;;;25.40;91.60;;;;;;5026298;28;20556;-54
2021/09/11 09:51:05;;;;;;;5.70;1.50;;;25.40;91.60;;;;;;5026152;28;20457;-54
2021/09/11 09:53:31;;;;;;;8.73;1.60;;;25.40;91.70;;;;;;5026121;28;20045;-54
2021/09/11 09:55:59;;;;;;;5.90;2.20;;;25.40;91.70;;;;;;5026268;28;20303;-56
2021/09/11 09:58:26;;;;;;;8.88;1.77;;;25.40;91.80;;;;;;5026067;28;20014;-48
2021/09/11 10:00:52;;;;;;;6.72;1.77;;;25.40;91.80;;;;;;5026066;28;20029;-52
2021/09/11 10:03:19;;;;;;;8.07;2.03;;;25.40;91.90;;;;;;5025508;28;20021;-53
2021/09/11 10:05:50;;;;;;;5.45;1.55;;;25.40;91.90;;;;;;5026187;28;20022;-54
2021/09/11 10:08:19;;;;;;;7.88;1.88;;;25.40;91.90;;;;;;5026029;28;20034;-53
2021/09/11 10:10:50;;;;;;;7.05;1.80;;;25.40;91.90;;;;;;5025936;28;20301;-50
2021/09/11 10:13:19;;;;;;;10.70;1.50;;;25.40;92.00;;;;;;5025872;28;20097;-53
2021/09/11 10:16:09;;;;;;;7.13;1.67;;;25.40;91.90;;;;;;5025794;28;20067;-55
2021/09/11 10:18:36;;;;;;;7.65;2.08;;;25.40;92.20;;;;;;5018511;28;20034;-53
2021/09/11 10:21:40;;;;;;;5.50;1.70;;;25.40;92.30;;;;;;5025742;28;20029;-53
2021/09/11 10:24:13;;;;;;;10.40;2.78;;;25.40;92.30;;;;;;5025965;28;20010;-55
2021/09/11 10:26:46;;;;;;;8.85;2.15;;;25.40;92.30;;;;;;5025491;28;20089;-55
2021/09/11 10:29:38;;;;;;;;;;;25.40;92.20;;;;;;5025746;28;20202;-54
2021/09/11 10:32:13;;;;;;;9.75;2.40;;;25.40;92.10;;;;;;5023502;28;19913;-53
2021/09/11 10:34:46;;;;;;;6.55;2.17;;;25.40;92.10;;;;;;5025614;28;20041;-58
2021/09/11 10:37:34;;;;;;;9.90;2.13;;;25.30;92.10;;;;;;5026033;28;20033;-53
2021/09/11 10:40:13;;;;;;;10.45;2.03;;;25.30;92.10;;;;;;5015118;28;20093;-53
2021/09/11 10:43:03;;;;;;;7.55;1.98;;;25.30;92.10;;;;;;5025943;28;20087;-53
2021/09/11 10:45:57;;;;;;;4.78;1.27;;;25.30;92.00;;;;;;5024904;28;20028;-54
2021/09/11 10:48:44;;;;;;;7.57;1.40;;;25.30;92.00;;;;;;5025325;28;20266;-54
2021/09/11 10:51:36;;;;;;;9.82;1.40;;;25.30;91.90;;;;;;5025074;28;20029;-62
2021/09/11 10:54:14;;;;;;;7.20;1.45;;;25.30;91.90;;;;;;5025164;28;20010;-56
2021/09/11 10:56:51;;;;;;;6.38;1.83;;;25.30;91.80;;;;;;5025004;28;20033;-54
2021/09/11 10:59:21;;;;;;;8.38;1.77;;;25.30;91.90;;;;;;5025166;28;20080;-53
2021/09/11 11:02:02;;;;;;;6.78;1.52;;;25.30;91.90;;;;;;5025046;28;20030;-54
2021/09/11 11:04:31;;;;;;;6.65;1.63;;;25.30;92.10;;;;;;5024929;28;20033;-51
2021/09/11 11:07:01;;;;;;;10.63;1.80;;;25.30;92.30;;;;;;5024353;28;20276;-51
2021/09/11 11:09:27;;;;;;;6.82;1.92;;;25.30;92.60;;;;;;5024589;28;20072;-53
2021/09/11 11:11:56;;;;;;;10.25;2.15;;;25.30;92.40;;;;;;5024653;28;20314;-54
2021/09/11 11:14:23;;;;;;;5.53;2.40;;;25.30;92.40;;;;;;5023914;28;20022;-50
2021/09/11 11:16:52;;;;;;;9.82;2.70;;;25.30;92.50;;;;;;5025006;28;20048;-52
2021/09/11 11:19:26;;;;;;;7.97;2.92;;;25.30;92.40;;;;;;5024344;28;20053;-52
2021/09/11 11:22:04;;;;;;;7.93;3.13;;;25.40;92.30;;;;;;5024650;28;20038;-54
2021/09/11 11:24:42;;;;;;;9.13;4.32;;;25.30;92.40;;;;;;5024432;28;20022;-53
2021/09/11 11:27:12;;;;;;;10.85;3.60;;;25.30;92.50;;;;;;5024705;28;20037;-56
2021/09/11 11:29:41;;;;;;;9.20;3.38;;;25.40;92.40;;;;;;5024057;28;20022;-56
2021/09/11 11:32:08;;;;;;;7.28;2.60;;;25.40;92.60;;;;;;5024556;28;20035;-56
2021/09/11 11:34:36;;;;;;;7.78;2.85;;;25.40;92.50;;;;;;5024304;28;20022;-55
2021/09/11 11:37:07;;;;;;;9.35;2.80;;;25.40;92.60;;;;;;5024293;28;20314;-54
2021/09/11 11:39:44;;;;;;;9.38;3.20;;;25.40;92.70;;;;;;5024353;28;20064;-54
2021/09/11 11:42:17;;;;;;;10.05;3.85;;;25.40;92.90;;;;;;5024600;28;20072;-54
2021/09/11 11:44:44;;;;;;;;;;;25.40;92.80;;;;;;5024598;28;20022;-55
2021/09/11 11:47:35;;;;;;;12.75;4.65;;;25.40;92.80;;;;;;5024652;28;19909;-53
2021/09/11 11:50:07;;;;;;;8.65;5.35;;;25.40;93.00;;;;;;5024030;28;20033;-54
2021/09/11 11:52:35;;;;;;;14.55;4.70;;;25.40;93.10;;;;;;5023860;28;20033;-55
2021/09/11 11:55:09;;;;;;;13.68;4.88;;;25.40;92.90;;;;;;5023808;28;20053;-55
2021/09/11 11:57:36;;;;;;;12.50;4.15;;;25.40;92.80;;;;;;5024459;28;20051;-52
2021/09/11 12:00:11;;;;;;;13.15;4.50;;;25.50;92.90;;;;;;5024272;28;20030;-48
2021/09/11 12:02:43;;;;;;;11.50;4.30;;;25.50;92.80;;;;;;5024658;28;20026;-54
2021/09/11 12:05:27;;;;;;;9.88;4.68;;;25.50;92.80;;;;;;5024091;28;20036;-53
2021/09/11 12:08:02;;;;;;;7.07;3.63;;;25.50;92.90;;;;;;5023761;28;20052;-54
2021/09/11 12:10:31;;;;;;;9.57;3.45;;;25.50;92.90;;;;;;5023825;28;20067;-55
2021/09/11 12:13:06;;;;;;;10.85;3.47;;;25.50;92.90;;;;;;5024050;28;20055;-53
2021/09/11 12:15:35;;;;;;;9.35;3.92;;;25.50;92.90;;;;;;5023852;28;20018;-56
2021/09/11 12:18:17;;;;;;;11.15;4.75;;;25.50;92.90;;;;;;5023724;28;20060;-54
2021/09/11 12:20:53;;;;;;;9.68;4.68;;;25.50;92.80;;;;;;5023844;28;20029;-55
2021/09/11 12:23:27;;;;;;;11.23;3.90;;;25.50;92.90;;;;;;5023646;28;20292;-52
2021/09/11 12:25:57;;;;;;;6.78;3.75;;;25.50;92.80;;;;;;5026093;28;20018;-52
2021/09/11 12:28:36;;;;;;;8.35;3.22;;;25.60;92.80;;;;;;5027500;28;20348;-56
2021/09/11 12:31:07;;;;;;;8.45;2.63;;;25.60;92.90;;;;;;5027439;28;20021;-54
2021/09/11 12:33:59;;;;;;;7.25;2.58;;;25.60;92.80;;;;;;5027558;28;20387;-55
2021/09/11 12:36:37;;;;;;;5.38;2.53;;;25.60;92.80;;;;;;5027568;28;20084;-54
2021/09/11 12:39:06;;;;;;;10.32;2.10;;;25.60;92.80;;;;;;5027567;28;20070;-53
2021/09/11 12:41:34;;;;;;;7.40;2.45;;;25.60;92.80;;;;;;5027550;28;20030;-54
2021/09/11 12:44:02;;;;;;;6.28;2.00;;;25.60;92.80;;;;;;5027471;28;20029;-54
2021/09/11 12:46:33;;;;;;;6.82;2.30;;;25.60;92.80;;;;;;5027264;28;20030;-55
2021/09/11 12:49:00;;;;;;;4.10;2.05;;;25.70;92.80;;;;;;5027553;28;20022;-55
2021/09/11 12:51:27;;;;;;;5.50;1.80;;;25.70;92.80;;;;;;5027170;28;20321;-53